createdAt,value
2018-05-27T00:00:40.082Z,0.00
2018-05-27T00:01:40.079Z,0.00
2018-05-27T00:02:40.083Z,0.00
2018-05-27T00:03:40.075Z,0.00
2018-05-27T00:04:40.072Z,0.00
2018-05-27T00:05:40.069Z,0.00
2018-05-27T00:06:40.091Z,0.00
2018-05-27T00:07:40.059Z,0.00
2018-05-27T00:08:40.053Z,0.00
2018-05-27T00:09:40.086Z,0.00
2018-05-27T00:10:40.050Z,0.00
2018-05-27T00:11:40.046Z,0.00
2018-05-27T00:12:40.044Z,0.00
2018-05-27T00:13:40.036Z,0.00
2018-05-27T00:14:40.031Z,0.00
2018-05-27T00:15:40.030Z,0.00
2018-05-27T00:16:40.024Z,0.00
2018-05-27T00:17:40.025Z,0.00
2018-05-27T00:18:40.023Z,0.00
2018-05-27T00:19:40.019Z,0.00
2018-05-27T00:20:40.011Z,0.00
2018-05-27T00:21:40.012Z,0.00
2018-05-27T00:22:40.013Z,0.00
2018-05-27T00:23:39.999Z,0.00
2018-05-27T00:24:39.999Z,0.00
2018-05-27T00:25:39.996Z,0.00
2018-05-27T00:26:39.995Z,0.00
2018-05-27T00:27:39.985Z,0.00
2018-05-27T00:28:39.981Z,0.00
2018-05-27T00:29:39.986Z,0.00
2018-05-27T00:30:39.975Z,0.00
2018-05-27T00:31:39.974Z,0.00
2018-05-27T00:32:39.975Z,0.00
2018-05-27T00:33:39.968Z,0.00
2018-05-27T00:34:39.961Z,0.00
2018-05-27T00:35:39.957Z,0.00
2018-05-27T00:36:39.953Z,0.00
2018-05-27T00:37:39.951Z,0.00
2018-05-27T00:38:39.948Z,0.00
2018-05-27T00:39:39.945Z,0.00
2018-05-27T00:40:39.944Z,0.00
2018-05-27T00:41:39.943Z,0.00
2018-05-27T00:42:39.933Z,0.00
2018-05-27T00:43:39.928Z,0.00
2018-05-27T00:44:39.925Z,0.00
2018-05-27T00:45:39.922Z,0.00
2018-05-27T00:46:39.921Z,0.00
2018-05-27T00:47:39.908Z,0.00
2018-05-27T00:48:39.908Z,0.00
2018-05-27T00:49:39.906Z,0.00
2018-05-27T00:50:39.901Z,0.00
2018-05-27T00:51:39.898Z,0.00
2018-05-27T00:52:39.894Z,0.00
2018-05-27T00:53:39.889Z,0.00
2018-05-27T00:54:39.882Z,0.00
2018-05-27T00:55:39.880Z,0.00
2018-05-27T00:56:39.878Z,0.00
2018-05-27T00:57:39.876Z,0.00
2018-05-27T00:58:39.872Z,0.00
2018-05-27T00:59:39.871Z,0.00
2018-05-27T01:00:39.869Z,0.00
2018-05-27T01:01:39.864Z,0.00
2018-05-27T01:02:39.853Z,0.00
2018-05-27T01:03:39.849Z,0.00
2018-05-27T01:04:39.845Z,0.00
2018-05-27T01:05:39.854Z,0.00
2018-05-27T01:06:39.846Z,0.00
2018-05-27T01:07:39.841Z,0.00
2018-05-27T01:08:39.835Z,0.00
2018-05-27T01:09:39.832Z,0.00
2018-05-27T01:10:39.837Z,0.00
2018-05-27T01:11:39.822Z,0.00
2018-05-27T01:12:39.823Z,0.00
2018-05-27T01:13:39.809Z,0.00
2018-05-27T01:14:39.810Z,0.00
2018-05-27T01:15:39.809Z,0.00
2018-05-27T01:16:39.825Z,0.00
2018-05-27T01:17:39.795Z,0.00
2018-05-27T01:18:39.897Z,0.00
2018-05-27T01:19:39.797Z,0.00
2018-05-27T01:20:39.787Z,0.00
2018-05-27T01:21:39.783Z,0.00
2018-05-27T01:22:39.778Z,0.00
2018-05-27T01:23:39.776Z,0.00
2018-05-27T01:24:39.767Z,0.00
2018-05-27T01:25:39.766Z,0.00
2018-05-27T01:26:39.765Z,0.00
2018-05-27T01:27:39.760Z,0.00
2018-05-27T01:28:39.755Z,0.00
2018-05-27T01:29:39.754Z,0.00
2018-05-27T01:30:39.745Z,0.00
2018-05-27T01:31:39.744Z,0.00
2018-05-27T01:32:39.736Z,0.00
2018-05-27T01:33:39.740Z,0.00
2018-05-27T01:34:39.733Z,0.00
2018-05-27T01:35:39.747Z,0.00
2018-05-27T01:36:39.724Z,0.00
2018-05-27T01:37:39.717Z,0.00
2018-05-27T01:38:39.713Z,0.00
2018-05-27T01:39:39.709Z,0.00
2018-05-27T01:40:39.711Z,0.00
2018-05-27T01:41:39.698Z,0.00
2018-05-27T01:42:39.699Z,0.00
2018-05-27T01:43:39.697Z,0.00
2018-05-27T01:44:39.718Z,0.00
2018-05-27T01:45:39.688Z,0.00
2018-05-27T01:46:39.683Z,0.00
2018-05-27T01:47:39.686Z,0.00
2018-05-27T01:48:39.675Z,0.00
2018-05-27T01:49:39.671Z,0.00
2018-05-27T01:50:39.670Z,0.00
2018-05-27T01:51:39.660Z,0.00
2018-05-27T01:52:39.655Z,0.00
2018-05-27T01:53:39.650Z,0.00
2018-05-27T01:54:39.651Z,0.00
2018-05-27T01:55:39.645Z,0.00
2018-05-27T01:56:39.646Z,0.00
2018-05-27T01:57:39.641Z,0.00
2018-05-27T01:58:39.631Z,0.00
2018-05-27T01:59:39.631Z,0.00
2018-05-27T02:00:39.622Z,0.00
2018-05-27T02:01:39.624Z,0.00
2018-05-27T02:02:39.618Z,0.00
2018-05-27T02:03:39.612Z,0.00
2018-05-27T02:04:39.610Z,0.00
2018-05-27T02:05:39.605Z,0.00
2018-05-27T02:06:39.601Z,0.00
2018-05-27T02:07:39.592Z,0.00
2018-05-27T02:08:39.593Z,0.00
2018-05-27T02:09:39.585Z,0.00
2018-05-27T02:10:39.581Z,0.00
2018-05-27T02:11:39.579Z,0.00
2018-05-27T02:12:39.588Z,0.00
2018-05-27T02:13:39.573Z,0.00
2018-05-27T02:14:39.566Z,0.00
2018-05-27T02:15:39.575Z,0.00
2018-05-27T02:16:39.570Z,0.00
2018-05-27T02:17:39.557Z,0.00
2018-05-27T02:18:39.553Z,0.00
2018-05-27T02:19:39.547Z,0.00
2018-05-27T02:20:39.543Z,0.00
2018-05-27T02:21:39.538Z,0.00
2018-05-27T02:22:39.532Z,0.00
2018-05-27T02:23:39.529Z,0.00
2018-05-27T02:24:39.527Z,0.00
2018-05-27T02:25:39.520Z,0.00
2018-05-27T02:26:39.518Z,0.00
2018-05-27T02:27:39.508Z,0.00
2018-05-27T02:28:39.504Z,0.00
2018-05-27T02:29:39.505Z,0.00
2018-05-27T02:30:39.499Z,0.00
2018-05-27T02:31:39.503Z,0.00
2018-05-27T02:32:39.488Z,0.00
2018-05-27T02:33:39.488Z,0.00
2018-05-27T02:34:39.484Z,0.00
2018-05-27T02:35:39.478Z,0.00
2018-05-27T02:36:39.482Z,0.00
2018-05-27T02:37:39.470Z,0.00
2018-05-27T02:38:39.466Z,0.00
2018-05-27T02:39:39.480Z,0.00
2018-05-27T02:40:39.465Z,0.00
2018-05-27T02:41:39.464Z,0.00
2018-05-27T02:42:39.454Z,4.00
2018-05-27T02:43:39.445Z,4.00
2018-05-27T02:44:39.440Z,4.00
2018-05-27T02:45:39.439Z,0.00
2018-05-27T02:46:39.427Z,4.00
2018-05-27T02:47:39.425Z,4.00
2018-05-27T02:48:39.418Z,8.00
2018-05-27T02:49:39.459Z,4.00
2018-05-27T02:50:39.414Z,8.00
2018-05-27T02:51:39.409Z,8.00
2018-05-27T02:52:39.407Z,8.00
2018-05-27T02:53:39.401Z,12.00
2018-05-27T02:54:39.401Z,12.00
2018-05-27T02:55:39.389Z,12.00
2018-05-27T02:56:39.393Z,12.00
2018-05-27T02:57:39.388Z,16.00
2018-05-27T02:58:39.382Z,16.00
2018-05-27T02:59:39.416Z,20.00
2018-05-27T03:00:39.373Z,24.00
2018-05-27T03:01:39.366Z,24.00
2018-05-27T03:02:39.360Z,28.00
2018-05-27T03:03:39.360Z,32.00
2018-05-27T03:04:39.354Z,36.00
2018-05-27T03:05:39.352Z,40.00
2018-05-27T03:06:39.344Z,48.00
2018-05-27T03:07:39.339Z,48.00
2018-05-27T03:08:39.380Z,56.00
2018-05-27T03:09:39.330Z,60.00
2018-05-27T03:10:39.333Z,68.00
2018-05-27T03:11:39.326Z,76.00
2018-05-27T03:12:39.321Z,80.00
2018-05-27T03:13:39.313Z,92.00
2018-05-27T03:14:39.309Z,96.00
2018-05-27T03:15:39.317Z,108.00
2018-05-27T03:16:39.307Z,116.00
2018-05-27T03:17:39.295Z,128.00
2018-05-27T03:18:39.318Z,136.00
2018-05-27T03:19:39.291Z,152.00
2018-05-27T03:20:39.285Z,168.00
2018-05-27T03:21:39.285Z,176.00
2018-05-27T03:22:39.273Z,192.00
2018-05-27T03:23:39.269Z,208.00
2018-05-27T03:24:39.275Z,224.00
2018-05-27T03:25:39.277Z,240.00
2018-05-27T03:26:39.259Z,256.00
2018-05-27T03:27:39.255Z,272.00
2018-05-27T03:28:39.252Z,288.00
2018-05-27T03:29:39.245Z,304.00
2018-05-27T03:30:39.244Z,324.00
2018-05-27T03:31:39.234Z,344.00
2018-05-27T03:32:39.230Z,356.00
2018-05-27T03:33:39.230Z,376.00
2018-05-27T03:34:39.222Z,392.00
2018-05-27T03:35:39.220Z,412.00
2018-05-27T03:36:39.215Z,432.00
2018-05-27T03:37:39.213Z,452.00
2018-05-27T03:38:39.203Z,468.00
2018-05-27T03:39:39.202Z,488.00
2018-05-27T03:40:39.199Z,512.00
2018-05-27T03:41:39.191Z,536.00
2018-05-27T03:42:39.189Z,560.00
2018-05-27T03:43:39.190Z,588.00
2018-05-27T03:44:39.187Z,620.00
2018-05-27T03:45:39.174Z,652.00
2018-05-27T03:46:39.173Z,688.00
2018-05-27T03:47:39.168Z,724.00
2018-05-27T03:48:39.164Z,772.00
2018-05-27T03:49:39.170Z,816.00
2018-05-27T03:50:39.146Z,860.00
2018-05-27T03:51:39.144Z,896.00
2018-05-27T03:52:40.297Z,944.00
2018-05-27T03:53:39.149Z,996.00
2018-05-27T03:54:39.135Z,1048.00
2018-05-27T03:55:39.129Z,1092.00
2018-05-27T03:56:39.129Z,1140.00
2018-05-27T03:57:39.119Z,1192.00
2018-05-27T03:58:39.115Z,1248.00
2018-05-27T03:59:39.108Z,1296.00
2018-05-27T04:00:39.105Z,1336.00
2018-05-27T04:01:39.103Z,1392.00
2018-05-27T04:02:39.095Z,1452.00
2018-05-27T04:03:39.093Z,1508.00
2018-05-27T04:04:39.087Z,1548.00
2018-05-27T04:05:39.080Z,1560.00
2018-05-27T04:06:39.087Z,1568.00
2018-05-27T04:07:39.079Z,1572.00
2018-05-27T04:08:39.068Z,1572.00
2018-05-27T04:09:39.066Z,1576.00
2018-05-27T04:10:39.058Z,1576.00
2018-05-27T04:11:39.055Z,1580.00
2018-05-27T04:12:39.051Z,1584.00
2018-05-27T04:13:39.045Z,1588.00
2018-05-27T04:14:39.044Z,1600.00
2018-05-27T04:15:39.039Z,1604.00
2018-05-27T04:16:39.034Z,1616.00
2018-05-27T04:17:39.028Z,1632.00
2018-05-27T04:18:39.024Z,1652.00
2018-05-27T04:19:39.041Z,1672.00
2018-05-27T04:20:39.016Z,1692.00
2018-05-27T04:21:39.009Z,1712.00
2018-05-27T04:22:39.011Z,1740.00
2018-05-27T04:23:39.001Z,1768.00
2018-05-27T04:24:38.999Z,1804.00
2018-05-27T04:25:38.993Z,1824.00
2018-05-27T04:26:38.987Z,1844.00
2018-05-27T04:27:38.988Z,1856.00
2018-05-27T04:28:39.019Z,1868.00
2018-05-27T04:29:38.972Z,1888.00
2018-05-27T04:30:38.970Z,1904.00
2018-05-27T04:31:38.972Z,1924.00
2018-05-27T04:32:38.958Z,1968.00
2018-05-27T04:33:38.958Z,2012.00
2018-05-27T04:34:38.952Z,2056.00
2018-05-27T04:35:38.948Z,2116.00
2018-05-27T04:36:38.942Z,2176.00
2018-05-27T04:37:38.938Z,2232.00
2018-05-27T04:38:38.936Z,2276.00
2018-05-27T04:39:38.927Z,2328.00
2018-05-27T04:40:38.925Z,2384.00
2018-05-27T04:41:38.918Z,2460.00
2018-05-27T04:42:38.916Z,2524.00
2018-05-27T04:43:38.915Z,2588.00
2018-05-27T04:44:38.904Z,2644.00
2018-05-27T04:45:38.900Z,2724.00
2018-05-27T04:46:38.895Z,2792.00
2018-05-27T04:47:38.888Z,2844.00
2018-05-27T04:48:38.884Z,2904.00
2018-05-27T04:49:38.882Z,2952.00
2018-05-27T04:50:38.878Z,3008.00
2018-05-27T04:51:38.879Z,3080.00
2018-05-27T04:52:38.866Z,3152.00
2018-05-27T04:53:38.860Z,3228.00
2018-05-27T04:54:38.858Z,3332.00
2018-05-27T04:55:38.854Z,3428.00
2018-05-27T04:56:38.846Z,3472.00
2018-05-27T04:57:38.845Z,3476.00
2018-05-27T04:58:38.841Z,3460.00
2018-05-27T04:59:38.838Z,3472.00
2018-05-27T05:00:38.833Z,3500.00
2018-05-27T05:01:38.828Z,3540.00
2018-05-27T05:02:38.822Z,3592.00
2018-05-27T05:03:38.819Z,3656.00
2018-05-27T05:04:38.816Z,3716.00
2018-05-27T05:05:38.810Z,3772.00
2018-05-27T05:06:38.803Z,3852.00
2018-05-27T05:07:38.797Z,3932.00
2018-05-27T05:08:38.799Z,3984.00
2018-05-27T05:09:38.797Z,4040.00
2018-05-27T05:10:38.785Z,4148.00
2018-05-27T05:11:38.788Z,4364.00
2018-05-27T05:12:38.781Z,4672.00
2018-05-27T05:13:38.777Z,4984.00
2018-05-27T05:14:38.769Z,5332.00
2018-05-27T05:15:38.764Z,5716.00
2018-05-27T05:16:38.765Z,6056.00
2018-05-27T05:17:38.756Z,6392.00
2018-05-27T05:18:38.755Z,6632.00
2018-05-27T05:19:38.755Z,6764.00
2018-05-27T05:20:38.758Z,6852.00
2018-05-27T05:21:38.746Z,6884.00
2018-05-27T05:22:38.739Z,6860.00
2018-05-27T05:23:38.743Z,6828.00
2018-05-27T05:24:38.732Z,6780.00
2018-05-27T05:25:38.733Z,6704.00
2018-05-27T05:26:38.729Z,6968.00
2018-05-27T05:27:38.737Z,7472.00
2018-05-27T05:28:38.722Z,7912.00
2018-05-27T05:29:38.717Z,8244.00
2018-05-27T05:30:38.715Z,8408.00
2018-05-27T05:31:38.720Z,8696.00
2018-05-27T05:32:38.713Z,9132.00
2018-05-27T05:33:38.715Z,9456.00
2018-05-27T05:34:38.708Z,9768.00
2018-05-27T05:35:38.703Z,9960.00
2018-05-27T05:36:38.701Z,10152.00
2018-05-27T05:37:38.695Z,10368.00
2018-05-27T05:38:38.693Z,10612.00
2018-05-27T05:39:38.699Z,10712.00
2018-05-27T05:40:38.695Z,10820.00
2018-05-27T05:41:38.688Z,11080.00
2018-05-27T05:42:38.687Z,11544.00
2018-05-27T05:43:38.727Z,11868.00
2018-05-27T05:44:38.680Z,11880.00
2018-05-27T05:45:38.693Z,11812.00
2018-05-27T05:46:38.681Z,11860.00
2018-05-27T05:47:38.720Z,12264.00
2018-05-27T05:48:38.678Z,12560.00
2018-05-27T05:49:38.678Z,12628.00
2018-05-27T05:50:38.672Z,12828.00
2018-05-27T05:51:38.673Z,13140.00
2018-05-27T05:52:38.671Z,13584.00
2018-05-27T05:53:38.668Z,13632.00
2018-05-27T05:54:38.671Z,14036.00
2018-05-27T05:55:38.669Z,14036.00
2018-05-27T05:56:38.669Z,14076.00
2018-05-27T05:57:38.673Z,14460.00
2018-05-27T05:58:38.662Z,14656.00
2018-05-27T05:59:38.665Z,14524.00
2018-05-27T06:00:38.667Z,14880.00
2018-05-27T06:01:38.677Z,14912.00
2018-05-27T06:02:38.666Z,14976.00
2018-05-27T06:03:38.665Z,15168.00
2018-05-27T06:04:38.671Z,15712.00
2018-05-27T06:05:38.669Z,16096.00
2018-05-27T06:06:38.661Z,16064.00
2018-05-27T06:07:38.663Z,16192.00
2018-05-27T06:08:38.667Z,15840.00
2018-05-27T06:09:38.673Z,11736.00
2018-05-27T06:10:38.660Z,14012.00
2018-05-27T06:11:38.663Z,12036.00
2018-05-27T06:12:38.674Z,11032.00
2018-05-27T06:13:38.746Z,9532.00
2018-05-27T06:14:38.659Z,16992.00
2018-05-27T06:15:38.664Z,17184.00
2018-05-27T06:16:38.665Z,17856.00
2018-05-27T06:17:38.665Z,18112.00
2018-05-27T06:18:38.662Z,18240.00
2018-05-27T06:19:38.691Z,18272.00
2018-05-27T06:20:38.662Z,18720.00
2018-05-27T06:21:38.663Z,19296.00
2018-05-27T06:22:38.665Z,19968.00
2018-05-27T06:23:38.667Z,19840.00
2018-05-27T06:24:38.668Z,20448.00
2018-05-27T06:25:38.688Z,20608.00
2018-05-27T06:26:38.675Z,20960.00
2018-05-27T06:27:38.670Z,21504.00
2018-05-27T06:28:38.667Z,21344.00
2018-05-27T06:29:38.670Z,21248.00
2018-05-27T06:30:38.672Z,21408.00
2018-05-27T06:31:38.679Z,21664.00
2018-05-27T06:32:38.672Z,22080.00
2018-05-27T06:33:38.674Z,22624.00
2018-05-27T06:34:38.672Z,23232.00
2018-05-27T06:35:38.677Z,23648.00
2018-05-27T06:36:38.679Z,23616.00
2018-05-27T06:37:38.680Z,23776.00
2018-05-27T06:38:38.685Z,23936.00
2018-05-27T06:39:38.683Z,24704.00
2018-05-27T06:40:38.683Z,24736.00
2018-05-27T06:41:38.683Z,24672.00
2018-05-27T06:42:38.686Z,25312.00
2018-05-27T06:43:38.691Z,25440.00
2018-05-27T06:44:38.691Z,25152.00
2018-05-27T06:45:38.691Z,25696.00
2018-05-27T06:46:38.698Z,26016.00
2018-05-27T06:47:38.695Z,26272.00
2018-05-27T06:48:38.698Z,26080.00
2018-05-27T06:49:38.703Z,25440.00
2018-05-27T06:50:38.704Z,25568.00
2018-05-27T06:51:38.713Z,25888.00
2018-05-27T06:52:38.712Z,26368.00
2018-05-27T06:53:38.713Z,26400.00
2018-05-27T06:54:38.717Z,26144.00
2018-05-27T06:55:38.720Z,26688.00
2018-05-27T06:56:38.719Z,27168.00
2018-05-27T06:57:38.723Z,26912.00
2018-05-27T06:58:38.733Z,28000.00
2018-05-27T06:59:38.735Z,29120.00
2018-05-27T07:00:38.738Z,29504.00
2018-05-27T07:01:38.735Z,30208.00
2018-05-27T07:02:38.743Z,30752.00
2018-05-27T07:03:38.743Z,30752.00
2018-05-27T07:04:38.779Z,31040.00
2018-05-27T07:05:38.758Z,31104.00
2018-05-27T07:06:38.756Z,30976.00
2018-05-27T07:07:38.760Z,31264.00
2018-05-27T07:08:38.761Z,31616.00
2018-05-27T07:09:38.770Z,32064.00
2018-05-27T07:10:38.777Z,32320.00
2018-05-27T07:11:38.820Z,32256.00
2018-05-27T07:12:38.784Z,31584.00
2018-05-27T07:13:38.788Z,30944.00
2018-05-27T07:14:38.790Z,31040.00
2018-05-27T07:15:38.791Z,32128.00
2018-05-27T07:16:38.815Z,33056.00
2018-05-27T07:17:38.802Z,33760.00
2018-05-27T07:18:38.808Z,34624.00
2018-05-27T07:19:38.818Z,35072.00
2018-05-27T07:20:38.819Z,35040.00
2018-05-27T07:21:38.826Z,34720.00
2018-05-27T07:22:38.824Z,35616.00
2018-05-27T07:23:38.832Z,36576.00
2018-05-27T07:24:38.837Z,37376.00
2018-05-27T07:25:38.842Z,38176.00
2018-05-27T07:26:38.905Z,38624.00
2018-05-27T07:27:38.855Z,39296.00
2018-05-27T07:28:38.919Z,38080.00
2018-05-27T07:29:38.869Z,36192.00
2018-05-27T07:30:38.876Z,36160.00
2018-05-27T07:31:38.872Z,37184.00
2018-05-27T07:32:38.878Z,37632.00
2018-05-27T07:33:38.889Z,37728.00
2018-05-27T07:34:38.962Z,38304.00
2018-05-27T07:35:38.894Z,38944.00
2018-05-27T07:36:38.901Z,40192.00
2018-05-27T07:37:38.906Z,40064.00
2018-05-27T07:38:38.915Z,35424.00
2018-05-27T07:39:38.920Z,24224.00
2018-05-27T07:40:38.932Z,20448.00
2018-05-27T07:41:38.934Z,19808.00
2018-05-27T07:42:38.942Z,19584.00
2018-05-27T07:43:38.946Z,19552.00
2018-05-27T07:44:38.952Z,19616.00
2018-05-27T07:45:38.959Z,19680.00
2018-05-27T07:46:38.990Z,20000.00
2018-05-27T07:47:38.973Z,20736.00
2018-05-27T07:48:38.975Z,28000.00
2018-05-27T07:49:38.991Z,40736.00
2018-05-27T07:50:38.998Z,44576.00
2018-05-27T07:51:38.994Z,45280.00
2018-05-27T07:52:39.013Z,46848.00
2018-05-27T07:53:39.011Z,47424.00
2018-05-27T07:54:39.018Z,47424.00
2018-05-27T07:55:39.027Z,47424.00
2018-05-27T07:56:39.029Z,47840.00
2018-05-27T07:57:39.042Z,48448.00
2018-05-27T07:58:39.042Z,47680.00
2018-05-27T07:59:39.048Z,46592.00
2018-05-27T08:00:39.056Z,8852.00
2018-05-27T08:01:39.063Z,9128.00
2018-05-27T08:02:39.072Z,9804.00
2018-05-27T08:03:39.106Z,9392.00
2018-05-27T08:04:39.103Z,9920.00
2018-05-27T08:05:39.088Z,11036.00
2018-05-27T08:06:39.098Z,5308.00
2018-05-27T08:07:39.112Z,10420.00
2018-05-27T08:08:39.104Z,10500.00
2018-05-27T08:09:39.113Z,10480.00
2018-05-27T08:10:39.117Z,10144.00
2018-05-27T08:11:39.122Z,10416.00
2018-05-27T08:12:39.123Z,9872.00
2018-05-27T08:13:39.133Z,9800.00
2018-05-27T08:14:39.141Z,10344.00
2018-05-27T08:15:39.145Z,0.00
2018-05-27T08:16:39.146Z,10300.00
2018-05-27T08:17:39.155Z,10768.00
2018-05-27T08:18:39.159Z,10652.00
2018-05-27T08:19:39.220Z,11708.00
2018-05-27T08:20:39.174Z,11420.00
2018-05-27T08:21:39.175Z,12032.00
2018-05-27T08:22:39.191Z,17888.00
2018-05-27T08:23:39.177Z,11072.00
2018-05-27T08:24:39.187Z,11612.00
2018-05-27T08:25:39.208Z,17072.00
2018-05-27T08:26:39.192Z,51904.00
2018-05-27T08:27:39.199Z,58720.00
2018-05-27T08:28:39.204Z,51168.00
2018-05-27T08:29:40.036Z,52800.00
2018-05-27T08:30:39.213Z,60448.00
2018-05-27T08:31:39.212Z,61408.00
2018-05-27T08:32:39.280Z,62336.00
2018-05-27T08:33:39.235Z,62784.00
2018-05-27T08:34:39.222Z,60032.00
2018-05-27T08:35:39.231Z,60896.00
2018-05-27T08:36:39.237Z,43648.00
2018-05-27T08:37:39.242Z,11656.00
2018-05-27T08:38:39.258Z,57856.00
2018-05-27T08:39:39.250Z,59296.00
2018-05-27T08:40:39.262Z,62016.00
2018-05-27T08:41:39.261Z,58272.00
2018-05-27T08:42:39.264Z,12496.00
2018-05-27T08:43:39.282Z,10592.00
2018-05-27T08:44:39.275Z,61408.00
2018-05-27T08:45:39.277Z,63072.00
2018-05-27T08:46:39.290Z,63008.00
2018-05-27T08:47:39.292Z,49472.00
2018-05-27T08:48:39.295Z,31840.00
2018-05-27T08:49:39.303Z,27040.00
2018-05-27T08:50:39.308Z,12452.00
2018-05-27T08:51:39.314Z,19648.00
2018-05-27T08:52:39.316Z,24736.00
2018-05-27T08:53:39.324Z,30624.00
2018-05-27T08:54:39.329Z,34432.00
2018-05-27T08:55:39.333Z,58304.00
2018-05-27T08:56:39.344Z,64160.00
2018-05-27T08:57:39.348Z,64960.00
2018-05-27T08:58:39.410Z,64192.00
2018-05-27T08:59:39.357Z,63072.00
2018-05-27T09:00:39.377Z,63648.00
2018-05-27T09:01:39.375Z,66688.00
2018-05-27T09:02:39.389Z,67232.00
2018-05-27T09:03:39.388Z,67360.00
2018-05-27T09:04:39.395Z,67712.00
2018-05-27T09:05:39.399Z,65600.00
2018-05-27T09:06:39.405Z,67072.00
2018-05-27T09:07:39.416Z,69440.00
2018-05-27T09:08:39.425Z,70528.00
2018-05-27T09:09:39.436Z,70560.00
2018-05-27T09:10:39.439Z,71264.00
2018-05-27T09:11:39.443Z,71072.00
2018-05-27T09:12:39.446Z,72192.00
2018-05-27T09:13:39.455Z,71616.00
2018-05-27T09:14:39.462Z,70912.00
2018-05-27T09:15:39.476Z,71936.00
2018-05-27T09:16:39.482Z,72352.00
2018-05-27T09:17:39.488Z,71264.00
2018-05-27T09:18:39.497Z,61088.00
2018-05-27T09:19:39.505Z,71232.00
2018-05-27T09:20:39.511Z,71776.00
2018-05-27T09:21:39.518Z,72960.00
2018-05-27T09:22:39.529Z,74336.00
2018-05-27T09:23:39.542Z,70016.00
2018-05-27T09:24:39.548Z,67232.00
2018-05-27T09:25:39.549Z,68256.00
2018-05-27T09:26:39.558Z,69632.00
2018-05-27T09:27:39.570Z,72352.00
2018-05-27T09:28:39.576Z,71936.00
2018-05-27T09:29:39.588Z,71200.00
2018-05-27T09:30:39.598Z,72672.00
2018-05-27T09:31:39.608Z,75104.00
2018-05-27T09:32:39.612Z,75968.00
2018-05-27T09:33:39.621Z,75744.00
2018-05-27T09:34:39.638Z,77600.00
2018-05-27T09:35:39.633Z,68320.00
2018-05-27T09:36:39.653Z,72992.00
2018-05-27T09:37:39.659Z,75424.00
2018-05-27T09:38:39.668Z,79168.00
2018-05-27T09:39:39.670Z,81696.00
2018-05-27T09:40:39.677Z,81792.00
2018-05-27T09:41:39.691Z,78848.00
2018-05-27T09:42:39.700Z,75904.00
2018-05-27T09:43:39.708Z,71072.00
2018-05-27T09:44:39.718Z,69728.00
2018-05-27T09:45:39.726Z,69472.00
2018-05-27T09:46:39.732Z,72896.00
2018-05-27T09:47:39.757Z,69888.00
2018-05-27T09:48:40.682Z,77600.00
2018-05-27T09:49:41.839Z,79936.00
2018-05-27T09:50:39.900Z,74368.00
2018-05-27T09:51:39.778Z,75136.00
2018-05-27T09:52:39.786Z,74688.00
2018-05-27T09:53:44.616Z,77440.00
2018-05-27T09:54:39.833Z,75840.00
2018-05-27T09:55:39.847Z,76320.00
2018-05-27T09:56:39.828Z,76544.00
2018-05-27T09:57:39.859Z,75648.00
2018-05-27T09:58:39.840Z,70496.00
2018-05-27T09:59:39.867Z,72768.00
2018-05-27T10:00:39.883Z,71488.00
2018-05-27T10:01:39.869Z,75936.00
2018-05-27T10:02:39.907Z,75872.00
2018-05-27T10:03:39.890Z,68800.00
2018-05-27T10:04:39.893Z,72864.00
2018-05-27T10:05:39.915Z,75904.00
2018-05-27T10:06:39.913Z,78304.00
2018-05-27T10:07:39.924Z,79040.00
2018-05-27T10:08:39.931Z,81760.00
2018-05-27T10:09:39.945Z,82272.00
2018-05-27T10:10:39.949Z,83168.00
2018-05-27T10:11:40.014Z,81216.00
2018-05-27T10:12:39.972Z,82624.00
2018-05-27T10:13:39.986Z,84448.00
2018-05-27T10:14:39.989Z,81184.00
2018-05-27T10:15:40.005Z,87072.00
2018-05-27T10:16:40.010Z,81792.00
2018-05-27T10:17:40.024Z,77568.00
2018-05-27T10:18:40.035Z,82208.00
2018-05-27T10:19:40.034Z,82080.00
2018-05-27T10:20:40.070Z,82912.00
2018-05-27T10:21:40.056Z,82496.00
2018-05-27T10:22:40.066Z,79904.00
2018-05-27T10:23:40.080Z,67232.00
2018-05-27T10:24:40.092Z,50688.00
2018-05-27T10:25:40.096Z,39904.00
2018-05-27T10:26:40.103Z,73568.00
2018-05-27T10:27:40.163Z,64640.00
2018-05-27T10:28:40.142Z,68320.00
2018-05-27T10:29:40.141Z,74784.00
2018-05-27T10:30:40.155Z,65120.00
2018-05-27T10:31:40.159Z,27616.00
2018-05-27T10:32:40.168Z,35776.00
2018-05-27T10:33:40.175Z,45056.00
2018-05-27T10:34:40.186Z,66432.00
2018-05-27T10:35:40.198Z,64640.00
2018-05-27T10:36:40.206Z,67936.00
2018-05-27T10:37:40.205Z,86592.00
2018-05-27T10:38:40.217Z,94784.00
2018-05-27T10:39:50.271Z,93632.00
2018-05-27T10:41:33.981Z,92064.00
2018-05-27T10:42:33.973Z,86720.00
2018-05-27T10:44:27.812Z,54432.00
2018-05-27T10:45:27.765Z,97056.00
2018-05-27T10:47:21.770Z,94432.00
2018-05-27T10:48:21.420Z,94112.00
2018-05-27T10:49:21.433Z,88160.00
2018-05-27T10:50:21.445Z,93120.00
2018-05-27T10:51:21.458Z,86272.00
2018-05-27T10:52:21.472Z,90048.00
2018-05-27T10:53:21.482Z,89536.00
2018-05-27T10:54:21.478Z,92608.00
2018-05-27T10:55:21.509Z,91808.00
2018-05-27T10:56:21.487Z,93696.00
2018-05-27T10:57:21.503Z,92352.00
2018-05-27T10:58:21.509Z,91232.00
2018-05-27T10:59:21.512Z,90464.00
2018-05-27T11:00:21.523Z,90816.00
2018-05-27T11:01:21.533Z,86592.00
2018-05-27T11:02:21.538Z,85216.00
2018-05-27T11:03:21.551Z,85856.00
2018-05-27T11:04:21.554Z,81632.00
2018-05-27T11:05:21.573Z,83456.00
2018-05-27T11:06:21.572Z,80000.00
2018-05-27T11:07:21.597Z,82336.00
2018-05-27T11:08:22.249Z,85216.00
2018-05-27T11:09:21.611Z,84032.00
2018-05-27T11:10:21.625Z,81152.00
2018-05-27T11:11:21.621Z,78368.00
2018-05-27T11:12:21.634Z,77344.00
2018-05-27T11:13:21.638Z,72736.00
2018-05-27T11:14:21.651Z,73184.00
2018-05-27T11:15:21.659Z,74368.00
2018-05-27T11:16:21.665Z,76960.00
2018-05-27T11:17:22.245Z,80832.00
2018-05-27T11:18:22.250Z,83360.00
2018-05-27T11:19:21.712Z,86112.00
2018-05-27T11:20:21.700Z,85568.00
2018-05-27T11:21:21.716Z,83200.00
2018-05-27T11:22:21.727Z,85056.00
2018-05-27T11:23:21.726Z,91264.00
2018-05-27T11:24:21.734Z,92320.00
2018-05-27T11:25:21.747Z,92480.00
2018-05-27T11:26:21.751Z,92512.00
2018-05-27T11:27:21.765Z,84000.00
2018-05-27T11:28:21.776Z,60160.00
2018-05-27T11:29:21.787Z,83584.00
2018-05-27T11:30:21.789Z,85056.00
2018-05-27T11:31:21.815Z,91776.00
2018-05-27T11:32:21.822Z,92384.00
2018-05-27T11:33:21.818Z,81120.00
2018-05-27T11:34:21.828Z,84896.00
2018-05-27T11:35:21.838Z,65792.00
2018-05-27T11:36:21.848Z,44832.00
2018-05-27T11:37:21.857Z,42016.00
2018-05-27T11:38:21.869Z,69792.00
2018-05-27T11:39:21.889Z,59552.00
2018-05-27T11:40:21.881Z,38592.00
2018-05-27T11:41:21.890Z,33440.00
2018-05-27T11:42:21.895Z,35680.00
2018-05-27T11:43:21.900Z,34688.00
2018-05-27T11:44:21.908Z,35648.00
2018-05-27T11:45:21.920Z,35136.00
2018-05-27T11:46:21.931Z,41280.00
2018-05-27T11:47:21.931Z,46752.00
2018-05-27T11:48:21.945Z,44640.00
2018-05-27T11:49:21.955Z,77408.00
2018-05-27T11:50:21.958Z,63360.00
2018-05-27T11:51:21.965Z,70560.00
2018-05-27T11:52:21.972Z,82528.00
2018-05-27T11:53:21.983Z,86240.00
2018-05-27T11:54:21.988Z,53600.00
2018-05-27T11:55:21.996Z,54656.00
2018-05-27T11:56:22.004Z,48288.00
2018-05-27T11:57:22.010Z,73856.00
2018-05-27T11:58:22.015Z,43264.00
2018-05-27T11:59:22.027Z,101344.00
2018-05-27T12:00:22.034Z,104416.00
2018-05-27T12:01:22.041Z,59648.00
2018-05-27T12:02:22.061Z,99392.00
2018-05-27T12:03:22.052Z,100064.00
2018-05-27T12:04:22.064Z,71968.00
2018-05-27T12:05:22.065Z,93056.00
2018-05-27T12:06:22.072Z,61376.00
2018-05-27T12:07:22.080Z,51968.00
2018-05-27T12:08:22.086Z,71904.00
2018-05-27T12:09:22.277Z,63392.00
2018-05-27T12:10:22.104Z,102080.00
2018-05-27T12:11:22.110Z,94400.00
2018-05-27T12:12:22.117Z,99392.00
2018-05-27T12:13:22.132Z,82016.00
2018-05-27T12:14:22.134Z,104480.00
2018-05-27T12:15:22.142Z,96800.00